sensor_id;sensor_type;location;lat;lon;timestamp;pressure;altitude;pressure_sealevel;temperature;humidity
14790;BME280;7486;51.010;10.366;2024-02-16T00:00:24;98141.78;;;8.25;75.82
14790;BME280;7486;51.010;10.366;2024-02-16T00:03:10;98131.03;;;8.05;76.03
14790;BME280;7486;51.010;10.366;2024-02-16T00:05:57;98133.41;;;8.14;76.89
14790;BME280;7486;51.010;10.366;2024-02-16T00:08:44;97854.13;;;6.46;76.72
14790;BME280;7486;51.010;10.366;2024-02-16T00:11:29;98139.97;;;8.25;76.68
14790;BME280;7486;51.010;10.366;2024-02-16T00:14:15;98135.31;;;8.27;77.30
14790;BME280;7486;51.010;10.366;2024-02-16T00:17:01;98073.63;;;8.00;76.93
14790;BME280;7486;51.010;10.366;2024-02-16T00:19:47;98134.13;;;8.36;76.68
14790;BME280;7486;51.010;10.366;2024-02-16T00:22:33;98142.69;;;8.38;76.33
14790;BME280;7486;51.010;10.366;2024-02-16T00:25:19;98136.16;;;8.34;76.26
14790;BME280;7486;51.010;10.366;2024-02-16T00:28:05;98129.59;;;8.24;76.46
14790;BME280;7486;51.010;10.366;2024-02-16T00:30:51;98145.78;;;8.14;77.21
14790;BME280;7486;51.010;10.366;2024-02-16T00:33:37;97939.03;;;6.97;76.60
14790;BME280;7486;51.010;10.366;2024-02-16T00:36:26;97964.38;;;6.98;76.16
14790;BME280;7486;51.010;10.366;2024-02-16T00:39:12;98097.91;;;7.96;76.81
14790;BME280;7486;51.010;10.366;2024-02-16T00:41:59;98135.69;;;8.24;76.56
14790;BME280;7486;51.010;10.366;2024-02-16T00:44:45;97872.06;;;6.57;76.47
14790;BME280;7486;51.010;10.366;2024-02-16T00:47:30;98121.38;;;8.12;77.71
14790;BME280;7486;51.010;10.366;2024-02-16T00:50:17;97971.53;;;7.32;76.91
14790;BME280;7486;51.010;10.366;2024-02-16T00:53:04;97915.72;;;6.94;76.93
14790;BME280;7486;51.010;10.366;2024-02-16T00:55:52;97815.06;;;6.22;77.31
14790;BME280;7486;51.010;10.366;2024-02-16T00:58:41;98034.00;;;7.38;79.06
14790;BME280;7486;51.010;10.366;2024-02-16T01:01:28;98064.75;;;7.52;79.73
14790;BME280;7486;51.010;10.366;2024-02-16T01:04:15;97701.84;;;5.24;80.21
14790;BME280;7486;51.010;10.366;2024-02-16T01:07:01;98122.22;;;7.42;80.83
14790;BME280;7486;51.010;10.366;2024-02-16T01:09:47;97928.97;;;6.65;79.84
14790;BME280;7486;51.010;10.366;2024-02-16T01:12:32;98030.69;;;7.30;78.91
14790;BME280;7486;51.010;10.366;2024-02-16T01:15:21;98039.38;;;7.51;78.16
14790;BME280;7486;51.010;10.366;2024-02-16T01:18:06;98103.44;;;8.01;77.60
14790;BME280;7486;51.010;10.366;2024-02-16T01:20:53;98070.34;;;7.70;76.94
14790;BME280;7486;51.010;10.366;2024-02-16T01:23:39;98095.53;;;8.01;77.64
14790;BME280;7486;51.010;10.366;2024-02-16T01:26:25;98100.56;;;7.96;77.23
14790;BME280;7486;51.010;10.366;2024-02-16T01:29:10;98107.84;;;7.94;77.34
14790;BME280;7486;51.010;10.366;2024-02-16T01:31:56;98105.22;;;7.94;77.80
14790;BME280;7486;51.010;10.366;2024-02-16T01:34:42;98124.41;;;7.88;78.00
14790;BME280;7486;51.010;10.366;2024-02-16T01:37:28;98103.41;;;7.94;77.49
14790;BME280;7486;51.010;10.366;2024-02-16T01:40:13;97999.75;;;7.38;77.62
14790;BME280;7486;51.010;10.366;2024-02-16T01:42:59;98008.28;;;7.40;76.84
14790;BME280;7486;51.010;10.366;2024-02-16T01:45:45;98092.13;;;8.07;76.49
14790;BME280;7486;51.010;10.366;2024-02-16T01:48:31;98100.06;;;7.86;77.07
14790;BME280;7486;51.010;10.366;2024-02-16T01:51:17;98058.56;;;7.66;76.93
14790;BME280;7486;51.010;10.366;2024-02-16T01:54:02;98105.47;;;7.78;77.94
14790;BME280;7486;51.010;10.366;2024-02-16T01:56:48;98089.66;;;7.78;77.46
14790;BME280;7486;51.010;10.366;2024-02-16T01:59:34;98101.47;;;7.60;78.56
14790;BME280;7486;51.010;10.366;2024-02-16T02:02:21;97571.28;;;4.61;77.82
14790;BME280;7486;51.010;10.366;2024-02-16T02:05:07;97759.72;;;5.88;77.07
14790;BME280;7486;51.010;10.366;2024-02-16T02:07:53;97965.03;;;7.07;76.54
14790;BME280;7486;51.010;10.366;2024-02-16T02:10:38;98080.63;;;7.87;76.75
14790;BME280;7486;51.010;10.366;2024-02-16T02:13:24;98072.72;;;7.87;76.81
14790;BME280;7486;51.010;10.366;2024-02-16T02:16:10;98021.94;;;7.50;76.66
14790;BME280;7486;51.010;10.366;2024-02-16T02:18:56;98073.28;;;7.82;76.16
14790;BME280;7486;51.010;10.366;2024-02-16T02:21:41;98071.84;;;7.80;76.56
14790;BME280;7486;51.010;10.366;2024-02-16T02:24:27;97963.41;;;7.06;76.40
14790;BME280;7486;51.010;10.366;2024-02-16T02:27:13;98014.13;;;7.36;76.55
14790;BME280;7486;51.010;10.366;2024-02-16T02:29:59;98019.69;;;7.47;76.43
14790;BME280;7486;51.010;10.366;2024-02-16T02:32:44;97976.19;;;7.09;76.63
14790;BME280;7486;51.010;10.366;2024-02-16T02:35:31;98065.84;;;7.64;77.05
14790;BME280;7486;51.010;10.366;2024-02-16T02:38:16;97965.50;;;6.89;77.03
14790;BME280;7486;51.010;10.366;2024-02-16T02:41:01;97952.28;;;6.83;77.51
14790;BME280;7486;51.010;10.366;2024-02-16T02:43:51;98035.59;;;7.33;77.98
14790;BME280;7486;51.010;10.366;2024-02-16T02:46:37;98025.63;;;7.07;80.05
14790;BME280;7486;51.010;10.366;2024-02-16T02:49:22;98003.50;;;6.65;81.24
14790;BME280;7486;51.010;10.366;2024-02-16T02:52:08;98002.56;;;6.88;81.36
14790;BME280;7486;51.010;10.366;2024-02-16T02:54:53;97976.91;;;6.96;80.90
14790;BME280;7486;51.010;10.366;2024-02-16T02:57:39;97976.44;;;7.14;80.17
14790;BME280;7486;51.010;10.366;2024-02-16T03:00:24;98025.50;;;7.36;79.55
14790;BME280;7486;51.010;10.366;2024-02-16T03:03:14;98064.53;;;7.54;78.99
14790;BME280;7486;51.010;10.366;2024-02-16T03:06:00;98072.16;;;7.42;80.05
14790;BME280;7486;51.010;10.366;2024-02-16T03:08:45;97947.63;;;6.13;82.97
14790;BME280;7486;51.010;10.366;2024-02-16T03:11:31;97914.41;;;5.91;84.61
14790;BME280;7486;51.010;10.366;2024-02-16T03:14:17;98062.97;;;6.96;82.91
14790;BME280;7486;51.010;10.366;2024-02-16T03:17:03;98064.81;;;7.16;83.12
14790;BME280;7486;51.010;10.366;2024-02-16T03:19:48;98049.69;;;7.46;81.48
14790;BME280;7486;51.010;10.366;2024-02-16T03:22:33;97987.75;;;6.87;81.25
14790;BME280;7486;51.010;10.366;2024-02-16T03:25:18;98009.94;;;7.20;80.72
14790;BME280;7486;51.010;10.366;2024-02-16T03:28:04;98022.09;;;7.42;80.62
14790;BME280;7486;51.010;10.366;2024-02-16T03:30:50;98002.38;;;7.38;79.37
14790;BME280;7486;51.010;10.366;2024-02-16T03:33:35;98058.41;;;7.75;79.57
14790;BME280;7486;51.010;10.366;2024-02-16T03:36:22;97961.47;;;7.14;79.01
14790;BME280;7486;51.010;10.366;2024-02-16T03:39:07;97951.50;;;7.10;78.86
14790;BME280;7486;51.010;10.366;2024-02-16T03:41:53;97988.59;;;7.36;78.22
14790;BME280;7486;51.010;10.366;2024-02-16T03:44:38;98059.06;;;7.77;78.88
14790;BME280;7486;51.010;10.366;2024-02-16T03:47:24;97947.16;;;7.02;78.50
14790;BME280;7486;51.010;10.366;2024-02-16T03:50:10;98033.28;;;7.51;78.53
14790;BME280;7486;51.010;10.366;2024-02-16T03:52:55;97976.44;;;7.14;78.49
14790;BME280;7486;51.010;10.366;2024-02-16T03:55:41;98054.91;;;7.67;78.57
14790;BME280;7486;51.010;10.366;2024-02-16T03:58:26;98048.03;;;7.66;78.59
14790;BME280;7486;51.010;10.366;2024-02-16T04:06:52;98048.94;;;7.52;78.92
14790;BME280;7486;51.010;10.366;2024-02-16T04:09:38;98006.03;;;7.16;79.13
14790;BME280;7486;51.010;10.366;2024-02-16T04:12:24;98037.75;;;7.50;78.90
14790;BME280;7486;51.010;10.366;2024-02-16T04:15:09;97999.84;;;7.24;78.95
14790;BME280;7486;51.010;10.366;2024-02-16T04:17:54;98009.16;;;7.26;79.02
14790;BME280;7486;51.010;10.366;2024-02-16T04:20:40;98046.56;;;7.15;80.37
14790;BME280;7486;51.010;10.366;2024-02-16T04:23:25;97996.97;;;6.97;80.19
14790;BME280;7486;51.010;10.366;2024-02-16T04:26:11;98009.81;;;7.07;79.24
14790;BME280;7486;51.010;10.366;2024-02-16T04:28:57;98021.84;;;7.16;78.86
14790;BME280;7486;51.010;10.366;2024-02-16T04:34:37;97998.72;;;6.90;79.63
14790;BME280;7486;51.010;10.366;2024-02-16T04:37:23;98042.47;;;7.34;79.33
14790;BME280;7486;51.010;10.366;2024-02-16T04:40:09;98016.72;;;7.08;78.73
14790;BME280;7486;51.010;10.366;2024-02-16T04:42:54;97929.00;;;6.44;78.95
14790;BME280;7486;51.010;10.366;2024-02-16T04:45:40;97939.59;;;6.50;79.04
14790;BME280;7486;51.010;10.366;2024-02-16T04:48:26;98037.78;;;7.08;78.76
14790;BME280;7486;51.010;10.366;2024-02-16T04:51:11;97906.75;;;6.10;79.96
14790;BME280;7486;51.010;10.366;2024-02-16T04:53:57;97942.50;;;6.41;79.76
14790;BME280;7486;51.010;10.366;2024-02-16T04:56:42;98054.91;;;7.18;80.08
14790;BME280;7486;51.010;10.366;2024-02-16T04:59:28;98025.72;;;6.99;80.08
14790;BME280;7486;51.010;10.366;2024-02-16T05:05:10;98054.16;;;7.25;79.24
14790;BME280;7486;51.010;10.366;2024-02-16T05:07:56;98047.06;;;7.25;79.51
14790;BME280;7486;51.010;10.366;2024-02-16T05:10:42;97936.50;;;6.47;79.00
14790;BME280;7486;51.010;10.366;2024-02-16T05:13:27;97976.19;;;6.66;78.67
14790;BME280;7486;51.010;10.366;2024-02-16T05:16:12;97934.44;;;6.42;78.81
14790;BME280;7486;51.010;10.366;2024-02-16T05:18:58;98044.59;;;7.02;78.93
14790;BME280;7486;51.010;10.366;2024-02-16T05:21:43;98011.00;;;6.68;79.78
14790;BME280;7486;51.010;10.366;2024-02-16T05:24:29;98040.03;;;6.90;79.76
14790;BME280;7486;51.010;10.366;2024-02-16T05:27:15;97998.16;;;6.59;80.16
14790;BME280;7486;51.010;10.366;2024-02-16T05:30:00;97982.53;;;6.36;80.72
14790;BME280;7486;51.010;10.366;2024-02-16T05:32:49;98049.06;;;6.81;80.87
14790;BME280;7486;51.010;10.366;2024-02-16T05:35:35;97864.50;;;5.03;83.04
14790;BME280;7486;51.010;10.366;2024-02-16T05:38:21;97985.59;;;5.75;84.93
14790;BME280;7486;51.010;10.366;2024-02-16T05:41:10;98051.69;;;6.51;83.94
14790;BME280;7486;51.010;10.366;2024-02-16T05:43:55;98011.78;;;6.48;81.83
14790;BME280;7486;51.010;10.366;2024-02-16T05:46:40;98038.59;;;6.37;83.68
14790;BME280;7486;51.010;10.366;2024-02-16T05:49:26;98025.09;;;6.61;82.10
14790;BME280;7486;51.010;10.366;2024-02-16T05:52:12;97985.31;;;6.49;81.66
14790;BME280;7486;51.010;10.366;2024-02-16T05:54:58;98046.56;;;6.94;80.68
14790;BME280;7486;51.010;10.366;2024-02-16T05:57:43;98010.03;;;6.69;80.16
14790;BME280;7486;51.010;10.366;2024-02-16T06:00:30;97799.63;;;5.41;79.77
14790;BME280;7486;51.010;10.366;2024-02-16T06:03:22;98062.59;;;6.99;79.76
14790;BME280;7486;51.010;10.366;2024-02-16T06:06:09;98065.06;;;7.00;80.11
14790;BME280;7486;51.010;10.366;2024-02-16T06:08:55;97996.72;;;6.71;79.92
14790;BME280;7486;51.010;10.366;2024-02-16T06:11:40;98002.94;;;6.70;79.85
14790;BME280;7486;51.010;10.366;2024-02-16T06:14:25;97974.03;;;6.55;79.70
14790;BME280;7486;51.010;10.366;2024-02-16T06:17:11;98026.63;;;6.85;80.51
14790;BME280;7486;51.010;10.366;2024-02-16T06:19:56;97896.72;;;5.99;80.73
14790;BME280;7486;51.010;10.366;2024-02-16T06:22:42;97944.88;;;6.36;81.51
14790;BME280;7486;51.010;10.366;2024-02-16T06:25:27;97955.66;;;6.41;81.67
14790;BME280;7486;51.010;10.366;2024-02-16T06:28:13;98029.00;;;7.01;82.15
14790;BME280;7486;51.010;10.366;2024-02-16T06:30:58;97948.78;;;6.61;81.56
14790;BME280;7486;51.010;10.366;2024-02-16T06:33:44;98082.50;;;7.44;81.04
14790;BME280;7486;51.010;10.366;2024-02-16T06:36:30;98054.59;;;7.28;80.73
14790;BME280;7486;51.010;10.366;2024-02-16T06:39:16;98030.38;;;7.18;80.07
14790;BME280;7486;51.010;10.366;2024-02-16T06:42:02;97992.00;;;7.09;80.14
14790;BME280;7486;51.010;10.366;2024-02-16T06:44:48;97990.88;;;7.18;79.46
14790;BME280;7486;51.010;10.366;2024-02-16T06:47:34;98064.66;;;7.67;79.94
14790;BME280;7486;51.010;10.366;2024-02-16T06:50:19;98018.19;;;7.38;79.51
14790;BME280;7486;51.010;10.366;2024-02-16T06:53:05;97999.50;;;7.33;79.52
14790;BME280;7486;51.010;10.366;2024-02-16T06:55:50;97960.47;;;7.15;78.98
14790;BME280;7486;51.010;10.366;2024-02-16T06:58:35;98005.69;;;7.47;78.63
14790;BME280;7486;51.010;10.366;2024-02-16T07:04:33;98066.13;;;8.04;78.49
14790;BME280;7486;51.010;10.366;2024-02-16T07:07:18;98065.38;;;8.10;78.21
14790;BME280;7486;51.010;10.366;2024-02-16T07:10:04;98014.81;;;7.72;77.92
14790;BME280;7486;51.010;10.366;2024-02-16T07:12:50;97984.13;;;7.37;79.15
14790;BME280;7486;51.010;10.366;2024-02-16T07:15:35;98064.94;;;7.79;79.34
14790;BME280;7486;51.010;10.366;2024-02-16T07:18:21;98017.88;;;7.76;78.70
14790;BME280;7486;51.010;10.366;2024-02-16T07:21:07;97980.63;;;7.57;78.81
14790;BME280;7486;51.010;10.366;2024-02-16T07:23:52;97972.00;;;7.70;77.87
14790;BME280;7486;51.010;10.366;2024-02-16T07:26:38;97997.72;;;7.68;78.23
14790;BME280;7486;51.010;10.366;2024-02-16T07:29:23;98012.63;;;7.54;80.62
14790;BME280;7486;51.010;10.366;2024-02-16T07:32:09;98038.34;;;7.74;80.70
14790;BME280;7486;51.010;10.366;2024-02-16T07:34:59;97957.03;;;7.15;82.14
14790;BME280;7486;51.010;10.366;2024-02-16T07:37:45;98021.75;;;7.80;81.05
14790;BME280;7486;51.010;10.366;2024-02-16T07:40:31;97923.22;;;7.46;79.85
14790;BME280;7486;51.010;10.366;2024-02-16T07:43:17;97951.50;;;7.65;79.86
14790;BME280;7486;51.010;10.366;2024-02-16T07:46:02;97976.72;;;7.81;79.11
14790;BME280;7486;51.010;10.366;2024-02-16T07:48:48;98041.22;;;7.79;82.06
14790;BME280;7486;51.010;10.366;2024-02-16T07:51:34;97990.66;;;7.68;81.64
14790;BME280;7486;51.010;10.366;2024-02-16T07:54:19;98021.88;;;7.99;80.60
14790;BME280;7486;51.010;10.366;2024-02-16T07:57:05;97963.22;;;7.56;80.74
14790;BME280;7486;51.010;10.366;2024-02-16T07:59:50;98008.69;;;7.99;80.85
14790;BME280;7486;51.010;10.366;2024-02-16T08:02:36;98053.94;;;8.31;80.73
14790;BME280;7486;51.010;10.366;2024-02-16T08:05:22;97944.28;;;7.46;80.49
14790;BME280;7486;51.010;10.366;2024-02-16T08:08:08;98000.63;;;7.73;81.81
14790;BME280;7486;51.010;10.366;2024-02-16T08:10:53;97993.66;;;7.65;81.54
14790;BME280;7486;51.010;10.366;2024-02-16T08:13:38;97964.81;;;7.57;81.95
14790;BME280;7486;51.010;10.366;2024-02-16T08:16:24;97966.53;;;7.71;82.02
14790;BME280;7486;51.010;10.366;2024-02-16T08:19:10;97881.13;;;7.25;80.64
14790;BME280;7486;51.010;10.366;2024-02-16T08:21:55;97962.91;;;7.73;81.27
14790;BME280;7486;51.010;10.366;2024-02-16T08:24:41;98029.91;;;8.19;80.68
14790;BME280;7486;51.010;10.366;2024-02-16T08:27:27;97994.22;;;7.89;81.46
14790;BME280;7486;51.010;10.366;2024-02-16T08:30:12;98055.69;;;8.17;81.16
14790;BME280;7486;51.010;10.366;2024-02-16T08:33:01;97948.13;;;7.50;81.81
14790;BME280;7486;51.010;10.366;2024-02-16T08:35:48;97871.06;;;7.07;80.45
14790;BME280;7486;51.010;10.366;2024-02-16T08:38:34;97884.41;;;7.06;80.34
14790;BME280;7486;51.010;10.366;2024-02-16T08:41:19;97895.59;;;7.08;79.35
14790;BME280;7486;51.010;10.366;2024-02-16T08:44:06;97982.94;;;7.39;80.31
14790;BME280;7486;51.010;10.366;2024-02-16T08:46:52;98054.88;;;8.16;80.43
14790;BME280;7486;51.010;10.366;2024-02-16T08:49:38;98013.84;;;7.80;79.98
14790;BME280;7486;51.010;10.366;2024-02-16T08:52:25;98043.41;;;8.03;79.81
14790;BME280;7486;51.010;10.366;2024-02-16T08:55:12;97588.97;;;5.09;80.46
14790;BME280;7486;51.010;10.366;2024-02-16T08:58:09;97923.69;;;7.29;80.25
14790;BME280;7486;51.010;10.366;2024-02-16T09:00:55;97572.84;;;5.55;78.46
14790;BME280;7486;51.010;10.366;2024-02-16T09:06:49;97886.47;;;7.38;77.66
14790;BME280;7486;51.010;10.366;2024-02-16T09:09:36;97666.22;;;6.28;76.67
14790;BME280;7486;51.010;10.366;2024-02-16T09:12:22;97587.78;;;5.76;76.76
14790;BME280;7486;51.010;10.366;2024-02-16T09:15:09;97922.63;;;7.92;76.65
14790;BME280;7486;51.010;10.366;2024-02-16T09:17:55;97744.28;;;6.76;76.69
14790;BME280;7486;51.010;10.366;2024-02-16T09:20:41;98087.53;;;9.04;76.60
14790;BME280;7486;51.010;10.366;2024-02-16T09:23:32;98014.00;;;8.47;76.87
14790;BME280;7486;51.010;10.366;2024-02-16T09:26:18;97923.94;;;8.09;76.68
14790;BME280;7486;51.010;10.366;2024-02-16T09:29:05;98111.53;;;9.22;74.95
14790;BME280;7486;51.010;10.366;2024-02-16T09:31:52;98101.06;;;8.88;76.84
14790;BME280;7486;51.010;10.366;2024-02-16T09:34:38;98024.91;;;8.31;76.70
14790;BME280;7486;51.010;10.366;2024-02-16T09:37:27;97737.06;;;6.85;76.94
14790;BME280;7486;51.010;10.366;2024-02-16T09:40:14;98124.09;;;9.00;77.21
14790;BME280;7486;51.010;10.366;2024-02-16T09:57:37;97792.47;;;7.45;75.60
14790;BME280;7486;51.010;10.366;2024-02-16T10:00:27;98031.22;;;8.90;74.65
14790;BME280;7486;51.010;10.366;2024-02-16T10:03:32;98039.97;;;9.04;74.50
14790;BME280;7486;51.010;10.366;2024-02-16T10:06:18;97790.03;;;7.50;73.93
14790;BME280;7486;51.010;10.366;2024-02-16T10:09:04;98136.06;;;9.90;72.92
14790;BME280;7486;51.010;10.366;2024-02-16T10:11:50;97884.22;;;8.24;73.49
14790;BME280;7486;51.010;10.366;2024-02-16T10:14:36;97812.47;;;7.81;73.19
14790;BME280;7486;51.010;10.366;2024-02-16T10:17:22;97841.72;;;7.99;72.77
14790;BME280;7486;51.010;10.366;2024-02-16T10:20:09;97898.09;;;8.45;72.52
14790;BME280;7486;51.010;10.366;2024-02-16T10:23:11;98157.03;;;9.91;73.24
14790;BME280;7486;51.010;10.366;2024-02-16T10:25:58;97843.00;;;8.16;72.57
14790;BME280;7486;51.010;10.366;2024-02-16T10:28:44;98058.16;;;9.73;71.44
14790;BME280;7486;51.010;10.366;2024-02-16T10:31:33;98183.50;;;10.31;71.48
14790;BME280;7486;51.010;10.366;2024-02-16T10:34:21;97971.50;;;9.35;70.04
14790;BME280;7486;51.010;10.366;2024-02-16T10:37:09;98058.56;;;9.89;71.18
14790;BME280;7486;51.010;10.366;2024-02-16T10:39:55;97969.91;;;9.47;70.28
14790;BME280;7486;51.010;10.366;2024-02-16T10:42:45;97896.09;;;9.13;70.26
14790;BME280;7486;51.010;10.366;2024-02-16T10:45:34;97979.03;;;9.64;69.85
14790;BME280;7486;51.010;10.366;2024-02-16T10:48:22;98003.22;;;9.75;70.51
14790;BME280;7486;51.010;10.366;2024-02-16T10:51:09;97864.56;;;9.18;69.74
14790;BME280;7486;51.010;10.366;2024-02-16T10:54:00;97618.97;;;7.62;69.14
14790;BME280;7486;51.010;10.366;2024-02-16T10:56:47;98148.16;;;10.83;68.88
14790;BME280;7486;51.010;10.366;2024-02-16T10:59:43;98134.13;;;10.82;68.66
14790;BME280;7486;51.010;10.366;2024-02-16T11:02:31;97933.69;;;9.54;68.90
14790;BME280;7486;51.010;10.366;2024-02-16T11:05:18;97811.59;;;8.87;68.58
14790;BME280;7486;51.010;10.366;2024-02-16T11:08:11;97925.50;;;9.76;69.21
14790;BME280;7486;51.010;10.366;2024-02-16T11:11:02;98020.97;;;10.38;68.93
14790;BME280;7486;51.010;10.366;2024-02-16T11:13:48;97979.00;;;10.42;67.84
14790;BME280;7486;51.010;10.366;2024-02-16T11:16:43;97937.56;;;10.16;68.81
14790;BME280;7486;51.010;10.366;2024-02-16T11:19:30;98098.72;;;11.08;68.06
14790;BME280;7486;51.010;10.366;2024-02-16T11:22:17;98083.06;;;11.00;68.08
14790;BME280;7486;51.010;10.366;2024-02-16T11:25:04;98093.25;;;11.03;67.61
14790;BME280;7486;51.010;10.366;2024-02-16T11:27:51;97910.44;;;9.69;67.74
14790;BME280;7486;51.010;10.366;2024-02-16T11:30:36;97969.53;;;10.14;68.74
14790;BME280;7486;51.010;10.366;2024-02-16T11:33:22;98007.94;;;10.37;68.45
14790;BME280;7486;51.010;10.366;2024-02-16T11:36:08;97790.84;;;9.03;67.57
14790;BME280;7486;51.010;10.366;2024-02-16T11:38:55;97909.88;;;10.18;66.58
14790;BME280;7486;51.010;10.366;2024-02-16T11:41:41;98049.69;;;10.92;67.93
14790;BME280;7486;51.010;10.366;2024-02-16T11:44:26;97995.22;;;10.58;67.37
14790;BME280;7486;51.010;10.366;2024-02-16T11:47:19;98000.50;;;10.71;67.29
14790;BME280;7486;51.010;10.366;2024-02-16T11:50:07;98075.94;;;11.32;67.12
14790;BME280;7486;51.010;10.366;2024-02-16T11:52:57;97961.78;;;10.70;67.04
14790;BME280;7486;51.010;10.366;2024-02-16T11:55:50;97850.44;;;10.14;66.31
14790;BME280;7486;51.010;10.366;2024-02-16T11:58:35;98095.88;;;11.97;64.99
14790;BME280;7486;51.010;10.366;2024-02-16T12:01:21;98083.44;;;11.72;65.15
14790;BME280;7486;51.010;10.366;2024-02-16T12:04:19;98075.69;;;11.96;65.26
14790;BME280;7486;51.010;10.366;2024-02-16T12:07:05;98090.00;;;11.95;64.30
14790;BME280;7486;51.010;10.366;2024-02-16T12:10:01;98026.53;;;11.44;65.23
14790;BME280;7486;51.010;10.366;2024-02-16T12:12:47;97861.94;;;10.33;66.09
14790;BME280;7486;51.010;10.366;2024-02-16T12:15:33;98045.53;;;11.65;65.03
14790;BME280;7486;51.010;10.366;2024-02-16T12:18:23;98036.63;;;11.53;65.61
14790;BME280;7486;51.010;10.366;2024-02-16T12:21:09;97976.50;;;11.22;65.63
14790;BME280;7486;51.010;10.366;2024-02-16T12:23:54;98064.88;;;11.41;66.50
14790;BME280;7486;51.010;10.366;2024-02-16T12:26:40;98052.22;;;11.43;65.24
14790;BME280;7486;51.010;10.366;2024-02-16T12:29:25;97836.81;;;10.11;64.24
14790;BME280;7486;51.010;10.366;2024-02-16T12:32:26;97779.25;;;9.75;64.60
14790;BME280;7486;51.010;10.366;2024-02-16T12:35:19;97631.06;;;8.68;65.37
14790;BME280;7486;51.010;10.366;2024-02-16T12:38:05;97578.56;;;8.34;64.89
14790;BME280;7486;51.010;10.366;2024-02-16T12:49:29;98055.66;;;11.75;65.08
14790;BME280;7486;51.010;10.366;2024-02-16T12:52:20;97834.72;;;10.26;64.84
14790;BME280;7486;51.010;10.366;2024-02-16T12:55:07;97803.97;;;10.25;65.25
14790;BME280;7486;51.010;10.366;2024-02-16T12:57:52;98106.63;;;12.08;64.85
14790;BME280;7486;51.010;10.366;2024-02-16T13:00:38;97902.81;;;10.50;66.76
14790;BME280;7486;51.010;10.366;2024-02-16T13:03:25;97852.00;;;10.29;65.58
14790;BME280;7486;51.010;10.366;2024-02-16T13:06:11;98064.09;;;11.65;66.48
14790;BME280;7486;51.010;10.366;2024-02-16T13:08:57;97889.25;;;10.71;65.98
14790;BME280;7486;51.010;10.366;2024-02-16T13:11:42;97887.94;;;10.81;65.55
14790;BME280;7486;51.010;10.366;2024-02-16T13:14:28;98079.66;;;11.87;66.31
14790;BME280;7486;51.010;10.366;2024-02-16T13:17:13;98104.34;;;12.12;66.65
14790;BME280;7486;51.010;10.366;2024-02-16T13:19:59;98074.84;;;11.95;65.19
14790;BME280;7486;51.010;10.366;2024-02-16T13:22:44;98057.28;;;11.76;66.10
14790;BME280;7486;51.010;10.366;2024-02-16T13:25:38;98118.53;;;11.99;66.34
14790;BME280;7486;51.010;10.366;2024-02-16T13:36:55;97886.13;;;10.99;65.79
14790;BME280;7486;51.010;10.366;2024-02-16T13:39:41;98093.19;;;11.79;67.04
14790;BME280;7486;51.010;10.366;2024-02-16T13:42:27;97998.41;;;11.11;68.24
14790;BME280;7486;51.010;10.366;2024-02-16T13:45:12;98061.69;;;11.33;68.67
14790;BME280;7486;51.010;10.366;2024-02-16T13:47:58;98112.88;;;11.64;68.86
14790;BME280;7486;51.010;10.366;2024-02-16T13:50:48;98102.38;;;11.76;68.87
14790;BME280;7486;51.010;10.366;2024-02-16T13:53:35;97886.94;;;10.50;69.25
14790;BME280;7486;51.010;10.366;2024-02-16T13:56:21;98020.63;;;11.66;68.03
14790;BME280;7486;51.010;10.366;2024-02-16T13:59:07;98067.09;;;12.18;66.88
14790;BME280;7486;51.010;10.366;2024-02-16T14:01:53;97840.44;;;11.04;65.60
14790;BME280;7486;51.010;10.366;2024-02-16T14:04:44;97590.88;;;9.42;66.03
14790;BME280;7486;51.010;10.366;2024-02-16T14:07:30;97851.22;;;11.09;65.88
14790;BME280;7486;51.010;10.366;2024-02-16T14:10:20;97927.44;;;11.81;65.08
14790;BME280;7486;51.010;10.366;2024-02-16T14:13:06;97892.56;;;11.59;65.44
14790;BME280;7486;51.010;10.366;2024-02-16T14:15:52;97941.13;;;11.96;65.13
14790;BME280;7486;51.010;10.366;2024-02-16T14:18:38;97858.91;;;11.35;65.14
14790;BME280;7486;51.010;10.366;2024-02-16T14:21:24;98131.03;;;12.78;65.92
14790;BME280;7486;51.010;10.366;2024-02-16T14:24:13;98088.97;;;12.57;65.10
14790;BME280;7486;51.010;10.366;2024-02-16T14:26:58;97956.63;;;11.81;65.06
14790;BME280;7486;51.010;10.366;2024-02-16T14:29:44;98137.00;;;12.92;64.96
14790;BME280;7486;51.010;10.366;2024-02-16T14:32:30;97850.78;;;11.12;64.87
14790;BME280;7486;51.010;10.366;2024-02-16T14:35:16;98085.53;;;12.56;65.03
14790;BME280;7486;51.010;10.366;2024-02-16T14:38:03;97812.13;;;10.80;64.57
14790;BME280;7486;51.010;10.366;2024-02-16T14:40:49;97957.59;;;11.37;66.45
14790;BME280;7486;51.010;10.366;2024-02-16T14:43:35;98070.78;;;12.17;66.31
14790;BME280;7486;51.010;10.366;2024-02-16T14:46:25;98140.25;;;12.57;66.91
14790;BME280;7486;51.010;10.366;2024-02-16T14:49:11;97907.19;;;11.19;65.85
14790;BME280;7486;51.010;10.366;2024-02-16T14:51:57;98059.78;;;12.14;65.95
14790;BME280;7486;51.010;10.366;2024-02-16T14:54:43;98157.41;;;12.80;66.05
14790;BME280;7486;51.010;10.366;2024-02-16T14:57:28;98121.56;;;12.46;66.38
14790;BME280;7486;51.010;10.366;2024-02-16T15:00:15;98024.19;;;11.79;66.85
14790;BME280;7486;51.010;10.366;2024-02-16T15:05:58;98159.03;;;12.81;66.63
14790;BME280;7486;51.010;10.366;2024-02-16T15:08:44;98104.53;;;12.53;66.47
14790;BME280;7486;51.010;10.366;2024-02-16T15:11:30;98169.00;;;13.03;65.98
14790;BME280;7486;51.010;10.366;2024-02-16T15:14:15;97956.34;;;11.64;65.31
14790;BME280;7486;51.010;10.366;2024-02-16T15:17:04;98184.22;;;12.96;65.44
14790;BME280;7486;51.010;10.366;2024-02-16T15:19:50;98173.13;;;12.99;65.71
14790;BME280;7486;51.010;10.366;2024-02-16T15:22:36;98176.03;;;12.98;65.97
14790;BME280;7486;51.010;10.366;2024-02-16T15:25:33;98078.84;;;12.47;66.01
14790;BME280;7486;51.010;10.366;2024-02-16T15:28:18;98143.03;;;12.87;66.19
14790;BME280;7486;51.010;10.366;2024-02-16T15:31:04;98193.34;;;13.18;65.57
14790;BME280;7486;51.010;10.366;2024-02-16T15:33:50;98178.06;;;13.14;65.20
14790;BME280;7486;51.010;10.366;2024-02-16T15:36:37;98175.88;;;13.11;64.96
14790;BME280;7486;51.010;10.366;2024-02-16T15:39:23;98182.41;;;13.08;64.92
14790;BME280;7486;51.010;10.366;2024-02-16T15:42:08;98157.63;;;12.78;65.21